One Commitment — 7JXG — position and weather

sailwx.info

Track history (hours):
 
Tides and Currents Weather Stations Pressure Air Temp Water Temp Dewpoint Dewpoint Depression Visibility Wind Speed Wind Dir Waves Ship Positions

One Commitment

Last reported at 2018-Apr-18 05:13 UTC. Time now 2018-Apr-22 14:16 UTC.
Position N 01°18' E 103°39'.

Length 316 m; draft 6.9 m.

Type: Ship (hazmat cat A). MMSI: 431332000.

Date/timePositionNaut miles runAvg speedWind from/ knotsBaromVisibWave heightAir tempDewpointWater temp
2018-Apr-18 05:13N 01°18' E 103°39'0 0.0
2018-Apr-18 05:00N 01°18' E 103°39'0 0.0
2018-Apr-18 04:30N 01°18' E 103°39'0 0.0
2018-Apr-17 09:00N 01°18' E 103°39'0 0.0
2018-Apr-17 08:30N 01°18' E 103°39'0 0.0
2018-Apr-17 08:00N 01°18' E 103°39'  
2018-Apr-15 02:06N 01°18' E 103°39'0 0.2
2018-Apr-15 02:01N 01°18' E 103°39'0 0.4
2018-Apr-15 01:30N 01°18' E 103°39'0 0.6
2018-Apr-15 00:59N 01°17' E 103°39'2 3.3
2018-Apr-15 00:30N 01°16' E 103°39'2 4.2
2018-Apr-15 00:00N 01°14' E 103°40'3 5.4
2018-Apr-14 23:30N 01°11' E 103°40'4 8.5
2018-Apr-14 23:00N 01°09' E 103°44'2 4.7
2018-Apr-14 22:30N 01°11' E 103°45'0 0.2
2018-Apr-14 21:55N 01°11' E 103°45'0 0.2
2018-Apr-14 21:28N 01°11' E 103°45'0 0.1
2018-Apr-14 20:55N 01°11' E 103°45'0 0.1
2018-Apr-14 20:28N 01°11' E 103°45'0 0.0
2018-Apr-14 19:52N 01°11' E 103°45'0 0.1
2018-Apr-14 19:28N 01°11' E 103°45'0 0.0
2018-Apr-14 18:58N 01°11' E 103°45'0 0.0
2018-Apr-14 18:28N 01°11' E 103°45'0 0.0
2018-Apr-14 17:58N 01°11' E 103°45'0 0.0
2018-Apr-14 17:28N 01°11' E 103°45'0 0.2
2018-Apr-14 16:58N 01°11' E 103°45'0 0.1
2018-Apr-14 16:28N 01°11' E 103°45'0 0.1
2018-Apr-14 15:58N 01°11' E 103°45'0 0.0
2018-Apr-14 15:22N 01°11' E 103°45'0 0.1
2018-Apr-14 14:55N 01°11' E 103°45'0 0.0
2018-Apr-14 14:28N 01°11' E 103°45'0 0.0
2018-Apr-14 13:58N 01°11' E 103°45'0 0.0
2018-Apr-14 13:28N 01°11' E 103°45'0 0.0
2018-Apr-14 12:55N 01°11' E 103°45'0 0.1
2018-Apr-14 12:28N 01°11' E 103°45'0 0.1
2018-Apr-14 11:58N 01°11' E 103°45'0 0.0
2018-Apr-14 11:28N 01°11' E 103°45'0 0.0
2018-Apr-14 10:55N 01°11' E 103°45'0 0.1
2018-Apr-14 10:25N 01°11' E 103°45'0 0.2
2018-Apr-14 09:55N 01°11' E 103°45'0 0.2
2018-Apr-14 09:28N 01°11' E 103°45'0 0.2
2018-Apr-14 08:55N 01°11' E 103°45'0 0.4
2018-Apr-14 08:28N 01°11' E 103°45'0 0.1
2018-Apr-14 07:58N 01°11' E 103°45'0 0.0
2018-Apr-14 07:28N 01°11' E 103°45'0 0.0
2018-Apr-14 06:58N 01°11' E 103°45'0 0.0
2018-Apr-14 06:28N 01°11' E 103°45'0 0.1
2018-Apr-14 05:59N 01°11' E 103°45'2 3.2
2018-Apr-14 05:30N 01°11' E 103°47'2 4.5
2018-Apr-14 05:01N 01°12' E 103°49'510.0
2018-Apr-14 04:30N 01°16' E 103°45'1 2.5
2018-Apr-14 04:00N 01°17' E 103°46'0 0.4
2018-Apr-14 03:28N 01°17' E 103°46'0 0.0
2018-Apr-14 02:58N 01°17' E 103°46'0 0.0
2018-Apr-14 02:25N 01°17' E 103°46'0 0.0
2018-Apr-14 01:58N 01°17' E 103°46'0 0.0
2018-Apr-14 01:29N 01°17' E 103°46'0 0.0
2018-Apr-14 00:58N 01°17' E 103°46'0 0.0
2018-Apr-14 00:28N 01°17' E 103°46'0 0.0
2018-Apr-13 23:58N 01°17' E 103°46'0 0.0
2018-Apr-13 23:28N 01°17' E 103°46'0 0.0
2018-Apr-13 22:58N 01°17' E 103°46'0 0.0
2018-Apr-13 22:28N 01°17' E 103°46'0 0.0
2018-Apr-13 21:58N 01°17' E 103°46'0 0.0
2018-Apr-13 21:28N 01°17' E 103°46'0 0.0
2018-Apr-13 20:58N 01°17' E 103°46'0 0.0
2018-Apr-13 20:28N 01°17' E 103°46'0 0.0
2018-Apr-13 19:55N 01°17' E 103°46'0 0.0
2018-Apr-13 19:28N 01°17' E 103°46'0 0.0
2018-Apr-13 18:58N 01°17' E 103°46'0 0.0
2018-Apr-13 18:28N 01°17' E 103°46'0 0.0
2018-Apr-13 17:55N 01°17' E 103°46'0 0.0
2018-Apr-13 17:28N 01°17' E 103°46'0 0.0
2018-Apr-13 16:58N 01°17' E 103°46'0 0.0
2018-Apr-13 16:28N 01°17' E 103°46'0 0.0
2018-Apr-13 15:58N 01°17' E 103°46'0 0.0
2018-Apr-13 15:28N 01°17' E 103°46'0 0.0
2018-Apr-13 14:58N 01°17' E 103°46'0 0.0
2018-Apr-13 14:28N 01°17' E 103°46'0 0.0
2018-Apr-13 13:58N 01°17' E 103°46'0 0.0
2018-Apr-13 13:29N 01°17' E 103°46'0 0.0
2018-Apr-13 12:58N 01°17' E 103°46'0 0.0
2018-Apr-13 12:28N 01°17' E 103°46'0 0.0
2018-Apr-13 11:58N 01°17' E 103°46'0 0.1
2018-Apr-13 11:28N 01°17' E 103°46'0 0.1
2018-Apr-13 10:58N 01°17' E 103°46'0 0.0
2018-Apr-13 10:28N 01°17' E 103°46'0 0.0
2018-Apr-13 09:58N 01°17' E 103°46'0 0.0
2018-Apr-13 09:28N 01°17' E 103°46'0 0.0
2018-Apr-13 08:58N 01°17' E 103°46'0 0.0
2018-Apr-13 08:28N 01°17' E 103°46'0 0.0
2018-Apr-13 07:58N 01°17' E 103°46'0 0.1
2018-Apr-13 07:30N 01°17' E 103°46'1 1.7
2018-Apr-13 07:00N 01°17' E 103°45'2 4.7
2018-Apr-13 06:30N 01°15' E 103°47'4 7.8
2018-Apr-13 06:00N 01°12' E 103°49'5 8.8
2018-Apr-13 05:29N 01°14' E 103°53'4 7.6
2018-Apr-13 04:59N 01°15' E 103°57'4 8.8
2018-Apr-13 04:29N 01°16' E 104°01'612.0
2018-Apr-13 04:00N 01°17' E 104°07'  
2018-Apr-08 12:22N 23°19' E 117°44'821.0
2018-Apr-08 12:00N 23°24' E 117°50'1221.0
2018-Apr-08 11:27N 23°32' E 117°60'1121.1
2018-Apr-08 10:56N 23°38' E 118°09'1421.1
2018-Apr-08 10:15N 23°47' E 118°22'1021.3
2018-Apr-08 09:47N 23°53' E 118°31'1021.7
2018-Apr-08 09:20N 23°59' E 118°39'  
Track history (hours):
 
Tides and Currents Weather Stations Pressure Air Temp Water Temp Dewpoint Dewpoint Depression Visibility Wind Speed Wind Dir Waves Ship Positions

One Commitment

Last reported at 2018-Apr-18 05:13 UTC. Time now 2018-Apr-22 14:16 UTC.
Position N 01°18' E 103°39'.

Length 316 m; draft 6.9 m.

Type: Ship (hazmat cat A). MMSI: 431332000.

Date/timePositionNaut miles runAvg speedWind from/ knotsBaromVisibWave heightAir tempDewpointWater temp
2018-Apr-18 05:13N 01°18' E 103°39'0 0.0
2018-Apr-18 05:00N 01°18' E 103°39'0 0.0
2018-Apr-18 04:30N 01°18' E 103°39'0 0.0
2018-Apr-17 09:00N 01°18' E 103°39'0 0.0
2018-Apr-17 08:30N 01°18' E 103°39'0 0.0
2018-Apr-17 08:00N 01°18' E 103°39'  
2018-Apr-15 02:06N 01°18' E 103°39'0 0.2
2018-Apr-15 02:01N 01°18' E 103°39'0 0.4
2018-Apr-15 01:30N 01°18' E 103°39'0 0.6
2018-Apr-15 00:59N 01°17' E 103°39'2 3.3
2018-Apr-15 00:30N 01°16' E 103°39'2 4.2
2018-Apr-15 00:00N 01°14' E 103°40'3 5.4
2018-Apr-14 23:30N 01°11' E 103°40'4 8.5
2018-Apr-14 23:00N 01°09' E 103°44'2 4.7
2018-Apr-14 22:30N 01°11' E 103°45'0 0.2
2018-Apr-14 21:55N 01°11' E 103°45'0 0.2
2018-Apr-14 21:28N 01°11' E 103°45'0 0.1
2018-Apr-14 20:55N 01°11' E 103°45'0 0.1
2018-Apr-14 20:28N 01°11' E 103°45'0 0.0
2018-Apr-14 19:52N 01°11' E 103°45'0 0.1
2018-Apr-14 19:28N 01°11' E 103°45'0 0.0
2018-Apr-14 18:58N 01°11' E 103°45'0 0.0
2018-Apr-14 18:28N 01°11' E 103°45'0 0.0
2018-Apr-14 17:58N 01°11' E 103°45'0 0.0
2018-Apr-14 17:28N 01°11' E 103°45'0 0.2
2018-Apr-14 16:58N 01°11' E 103°45'0 0.1
2018-Apr-14 16:28N 01°11' E 103°45'0 0.1
2018-Apr-14 15:58N 01°11' E 103°45'0 0.0
2018-Apr-14 15:22N 01°11' E 103°45'0 0.1
2018-Apr-14 14:55N 01°11' E 103°45'0 0.0
2018-Apr-14 14:28N 01°11' E 103°45'0 0.0
2018-Apr-14 13:58N 01°11' E 103°45'0 0.0
2018-Apr-14 13:28N 01°11' E 103°45'0 0.0
2018-Apr-14 12:55N 01°11' E 103°45'0 0.1
2018-Apr-14 12:28N 01°11' E 103°45'0 0.1
2018-Apr-14 11:58N 01°11' E 103°45'0 0.0
2018-Apr-14 11:28N 01°11' E 103°45'0 0.0
2018-Apr-14 10:55N 01°11' E 103°45'0 0.1
2018-Apr-14 10:25N 01°11' E 103°45'0 0.2
2018-Apr-14 09:55N 01°11' E 103°45'0 0.2
2018-Apr-14 09:28N 01°11' E 103°45'0 0.2
2018-Apr-14 08:55N 01°11' E 103°45'0 0.4
2018-Apr-14 08:28N 01°11' E 103°45'0 0.1
2018-Apr-14 07:58N 01°11' E 103°45'0 0.0
2018-Apr-14 07:28N 01°11' E 103°45'0 0.0
2018-Apr-14 06:58N 01°11' E 103°45'0 0.0
2018-Apr-14 06:28N 01°11' E 103°45'0 0.1
2018-Apr-14 05:59N 01°11' E 103°45'2 3.2
2018-Apr-14 05:30N 01°11' E 103°47'2 4.5
2018-Apr-14 05:01N 01°12' E 103°49'510.0
2018-Apr-14 04:30N 01°16' E 103°45'1 2.5
2018-Apr-14 04:00N 01°17' E 103°46'0 0.4
2018-Apr-14 03:28N 01°17' E 103°46'0 0.0
2018-Apr-14 02:58N 01°17' E 103°46'0 0.0
2018-Apr-14 02:25N 01°17' E 103°46'0 0.0
2018-Apr-14 01:58N 01°17' E 103°46'0 0.0
2018-Apr-14 01:29N 01°17' E 103°46'0 0.0
2018-Apr-14 00:58N 01°17' E 103°46'0 0.0
2018-Apr-14 00:28N 01°17' E 103°46'0 0.0
2018-Apr-13 23:58N 01°17' E 103°46'0 0.0
2018-Apr-13 23:28N 01°17' E 103°46'0 0.0
2018-Apr-13 22:58N 01°17' E 103°46'0 0.0
2018-Apr-13 22:28N 01°17' E 103°46'0 0.0
2018-Apr-13 21:58N 01°17' E 103°46'0 0.0
2018-Apr-13 21:28N 01°17' E 103°46'0 0.0
2018-Apr-13 20:58N 01°17' E 103°46'0 0.0
2018-Apr-13 20:28N 01°17' E 103°46'0 0.0
2018-Apr-13 19:55N 01°17' E 103°46'0 0.0
2018-Apr-13 19:28N 01°17' E 103°46'0 0.0
2018-Apr-13 18:58N 01°17' E 103°46'0 0.0
2018-Apr-13 18:28N 01°17' E 103°46'0 0.0
2018-Apr-13 17:55N 01°17' E 103°46'0 0.0
2018-Apr-13 17:28N 01°17' E 103°46'0 0.0
2018-Apr-13 16:58N 01°17' E 103°46'0 0.0
2018-Apr-13 16:28N 01°17' E 103°46'0 0.0
2018-Apr-13 15:58N 01°17' E 103°46'0 0.0
2018-Apr-13 15:28N 01°17' E 103°46'0 0.0
2018-Apr-13 14:58N 01°17' E 103°46'0 0.0
2018-Apr-13 14:28N 01°17' E 103°46'0 0.0
2018-Apr-13 13:58N 01°17' E 103°46'0 0.0
2018-Apr-13 13:29N 01°17' E 103°46'0 0.0
2018-Apr-13 12:58N 01°17' E 103°46'0 0.0
2018-Apr-13 12:28N 01°17' E 103°46'0 0.0
2018-Apr-13 11:58N 01°17' E 103°46'0 0.1
2018-Apr-13 11:28N 01°17' E 103°46'0 0.1
2018-Apr-13 10:58N 01°17' E 103°46'0 0.0
2018-Apr-13 10:28N 01°17' E 103°46'0 0.0
2018-Apr-13 09:58N 01°17' E 103°46'0 0.0
2018-Apr-13 09:28N 01°17' E 103°46'0 0.0
2018-Apr-13 08:58N 01°17' E 103°46'0 0.0
2018-Apr-13 08:28N 01°17' E 103°46'0 0.0
2018-Apr-13 07:58N 01°17' E 103°46'0 0.1
2018-Apr-13 07:30N 01°17' E 103°46'1 1.7
2018-Apr-13 07:00N 01°17' E 103°45'2 4.7
2018-Apr-13 06:30N 01°15' E 103°47'4 7.8
2018-Apr-13 06:00N 01°12' E 103°49'5 8.8
2018-Apr-13 05:29N 01°14' E 103°53'4 7.6
2018-Apr-13 04:59N 01°15' E 103°57'4 8.8
2018-Apr-13 04:29N 01°16' E 104°01'612.0
2018-Apr-13 04:00N 01°17' E 104°07'  
2018-Apr-08 12:22N 23°19' E 117°44'821.0
2018-Apr-08 12:00N 23°24' E 117°50'1221.0
2018-Apr-08 11:27N 23°32' E 117°60'1121.1
2018-Apr-08 10:56N 23°38' E 118°09'1421.1
2018-Apr-08 10:15N 23°47' E 118°22'1021.3
2018-Apr-08 09:47N 23°53' E 118°31'1021.7
2018-Apr-08 09:20N 23°59' E 118°39'  

Dump ship's entire track history